Terminal Aerodrome Forecast
Issued by NWS Sioux Falls, SD

Home | Current Version | Previous Version | Text Only | Print | Product List | Glossary On
Versions: 1 2 3 4 5 6 7 8 9 10 11 12 13 14 15 16 17 18 19 20
225
FTUS43 KFSD 171739
TAFFSD
TAF
KFSD 171739Z 1718/1818 VRB04KT P6SM SCT090
     FM180000 16005KT P6SM BKN090
     FM181000 15010KT P6SM -SHRA OVC080
     FM181500 15007KT P6SM SCT035 BKN050=

USA.gov is the U.S. government's official web portal to all federal, state and local government web resources and services.